sensor_id;sensor_type;location;lat;lon;timestamp;P1;durP1;ratioP1;P2;durP2;ratioP2
40256;SDS011;25977;45.462;9.210;2023-05-10T00:00:57;10.02;;;8.73;;
40256;SDS011;25977;45.462;9.210;2023-05-10T00:03:22;11.10;;;9.20;;
40256;SDS011;25977;45.462;9.210;2023-05-10T00:05:48;10.05;;;9.05;;
40256;SDS011;25977;45.462;9.210;2023-05-10T00:08:14;11.57;;;8.98;;
40256;SDS011;25977;45.462;9.210;2023-05-10T00:10:39;11.40;;;9.88;;
40256;SDS011;25977;45.462;9.210;2023-05-10T00:13:06;12.13;;;8.70;;
40256;SDS011;25977;45.462;9.210;2023-05-10T00:15:32;10.98;;;9.40;;
40256;SDS011;25977;45.462;9.210;2023-05-10T00:17:59;12.82;;;9.75;;
40256;SDS011;25977;45.462;9.210;2023-05-10T00:20:25;14.65;;;10.10;;
40256;SDS011;25977;45.462;9.210;2023-05-10T00:22:51;13.02;;;10.18;;
40256;SDS011;25977;45.462;9.210;2023-05-10T00:25:16;13.05;;;9.95;;
40256;SDS011;25977;45.462;9.210;2023-05-10T00:27:42;9.73;;;8.63;;
40256;SDS011;25977;45.462;9.210;2023-05-10T00:30:09;19.80;;;9.52;;
40256;SDS011;25977;45.462;9.210;2023-05-10T00:32:34;11.85;;;8.95;;
40256;SDS011;25977;45.462;9.210;2023-05-10T00:35:00;13.23;;;8.55;;
40256;SDS011;25977;45.462;9.210;2023-05-10T00:37:26;10.85;;;8.82;;
40256;SDS011;25977;45.462;9.210;2023-05-10T00:39:51;13.52;;;10.15;;
40256;SDS011;25977;45.462;9.210;2023-05-10T00:42:17;9.88;;;8.55;;
40256;SDS011;25977;45.462;9.210;2023-05-10T00:44:43;10.32;;;8.43;;
40256;SDS011;25977;45.462;9.210;2023-05-10T00:47:08;10.18;;;9.15;;
40256;SDS011;25977;45.462;9.210;2023-05-10T00:49:36;10.82;;;9.52;;
40256;SDS011;25977;45.462;9.210;2023-05-10T00:52:02;11.55;;;9.65;;
40256;SDS011;25977;45.462;9.210;2023-05-10T00:54:28;11.00;;;9.25;;
40256;SDS011;25977;45.462;9.210;2023-05-10T00:56:54;9.50;;;8.50;;
40256;SDS011;25977;45.462;9.210;2023-05-10T00:59:22;9.63;;;8.40;;
40256;SDS011;25977;45.462;9.210;2023-05-10T01:01:48;12.15;;;8.60;;
40256;SDS011;25977;45.462;9.210;2023-05-10T01:04:14;10.02;;;8.52;;
40256;SDS011;25977;45.462;9.210;2023-05-10T01:06:41;10.02;;;7.90;;
40256;SDS011;25977;45.462;9.210;2023-05-10T01:09:07;8.02;;;7.20;;
40256;SDS011;25977;45.462;9.210;2023-05-10T01:11:33;8.23;;;6.50;;
40256;SDS011;25977;45.462;9.210;2023-05-10T01:14:01;9.95;;;8.07;;
40256;SDS011;25977;45.462;9.210;2023-05-10T01:16:27;7.97;;;7.10;;
40256;SDS011;25977;45.462;9.210;2023-05-10T01:18:55;8.88;;;7.68;;
40256;SDS011;25977;45.462;9.210;2023-05-10T01:21:33;9.85;;;7.88;;
40256;SDS011;25977;45.462;9.210;2023-05-10T01:36:13;8.75;;;7.60;;
40256;SDS011;25977;45.462;9.210;2023-05-10T01:38:57;13.20;;;9.48;;
40256;SDS011;25977;45.462;9.210;2023-05-10T01:44:11;10.25;;;8.82;;
40256;SDS011;25977;45.462;9.210;2023-05-10T01:46:53;9.35;;;7.35;;
40256;SDS011;25977;45.462;9.210;2023-05-10T01:49:31;13.07;;;8.50;;
40256;SDS011;25977;45.462;9.210;2023-05-10T01:52:04;8.73;;;7.82;;
40256;SDS011;25977;45.462;9.210;2023-05-10T01:54:33;10.52;;;7.93;;
40256;SDS011;25977;45.462;9.210;2023-05-10T01:57:03;10.70;;;8.00;;
40256;SDS011;25977;45.462;9.210;2023-05-10T01:59:34;9.80;;;8.48;;
40256;SDS011;25977;45.462;9.210;2023-05-10T02:02:02;10.07;;;7.93;;
40256;SDS011;25977;45.462;9.210;2023-05-10T02:04:29;8.00;;;7.20;;
40256;SDS011;25977;45.462;9.210;2023-05-10T02:06:56;7.82;;;7.03;;
40256;SDS011;25977;45.462;9.210;2023-05-10T02:09:23;9.82;;;7.18;;
40256;SDS011;25977;45.462;9.210;2023-05-10T02:11:52;7.50;;;6.72;;
40256;SDS011;25977;45.462;9.210;2023-05-10T02:14:19;7.32;;;6.63;;
40256;SDS011;25977;45.462;9.210;2023-05-10T02:16:47;15.05;;;7.70;;
40256;SDS011;25977;45.462;9.210;2023-05-10T02:19:15;9.35;;;6.80;;
40256;SDS011;25977;45.462;9.210;2023-05-10T02:21:43;7.72;;;7.00;;
40256;SDS011;25977;45.462;9.210;2023-05-10T02:24:13;8.57;;;7.00;;
40256;SDS011;25977;45.462;9.210;2023-05-10T02:26:40;13.27;;;7.45;;
40256;SDS011;25977;45.462;9.210;2023-05-10T02:29:09;8.85;;;7.65;;
40256;SDS011;25977;45.462;9.210;2023-05-10T02:31:37;11.30;;;6.82;;
40256;SDS011;25977;45.462;9.210;2023-05-10T02:34:04;8.02;;;6.93;;
40256;SDS011;25977;45.462;9.210;2023-05-10T02:36:33;7.28;;;5.78;;
40256;SDS011;25977;45.462;9.210;2023-05-10T02:38:59;6.63;;;5.57;;
40256;SDS011;25977;45.462;9.210;2023-05-10T02:41:27;7.15;;;5.97;;
40256;SDS011;25977;45.462;9.210;2023-05-10T02:43:55;6.13;;;5.53;;
40256;SDS011;25977;45.462;9.210;2023-05-10T02:46:23;5.88;;;4.97;;
40256;SDS011;25977;45.462;9.210;2023-05-10T02:48:48;5.32;;;4.82;;
40256;SDS011;25977;45.462;9.210;2023-05-10T02:51:14;6.78;;;5.53;;
40256;SDS011;25977;45.462;9.210;2023-05-10T02:53:43;5.15;;;4.75;;
40256;SDS011;25977;45.462;9.210;2023-05-10T02:56:15;4.57;;;4.28;;
40256;SDS011;25977;45.462;9.210;2023-05-10T02:58:48;5.07;;;4.55;;
40256;SDS011;25977;45.462;9.210;2023-05-10T03:01:14;7.70;;;4.68;;
40256;SDS011;25977;45.462;9.210;2023-05-10T03:03:40;5.35;;;4.95;;
40256;SDS011;25977;45.462;9.210;2023-05-10T03:06:06;4.50;;;4.15;;
40256;SDS011;25977;45.462;9.210;2023-05-10T03:08:31;6.25;;;4.80;;
40256;SDS011;25977;45.462;9.210;2023-05-10T03:16:35;4.75;;;4.35;;
40256;SDS011;25977;45.462;9.210;2023-05-10T03:19:06;5.28;;;4.78;;
40256;SDS011;25977;45.462;9.210;2023-05-10T03:21:46;5.97;;;5.45;;
40256;SDS011;25977;45.462;9.210;2023-05-10T03:24:16;8.48;;;5.38;;
40256;SDS011;25977;45.462;9.210;2023-05-10T03:26:44;5.45;;;4.88;;
40256;SDS011;25977;45.462;9.210;2023-05-10T03:29:15;4.60;;;4.18;;
40256;SDS011;25977;45.462;9.210;2023-05-10T03:31:42;5.32;;;4.82;;
40256;SDS011;25977;45.462;9.210;2023-05-10T03:34:08;8.60;;;5.75;;
40256;SDS011;25977;45.462;9.210;2023-05-10T03:36:33;5.72;;;5.22;;
40256;SDS011;25977;45.462;9.210;2023-05-10T03:38:59;4.97;;;4.57;;
40256;SDS011;25977;45.462;9.210;2023-05-10T03:41:25;5.40;;;4.90;;
40256;SDS011;25977;45.462;9.210;2023-05-10T03:43:52;9.32;;;4.68;;
40256;SDS011;25977;45.462;9.210;2023-05-10T03:46:18;11.73;;;4.47;;
40256;SDS011;25977;45.462;9.210;2023-05-10T03:48:44;6.57;;;4.63;;
40256;SDS011;25977;45.462;9.210;2023-05-10T03:51:10;4.75;;;4.25;;
40256;SDS011;25977;45.462;9.210;2023-05-10T03:53:36;4.47;;;3.72;;
40256;SDS011;25977;45.462;9.210;2023-05-10T03:56:01;5.97;;;5.38;;
40256;SDS011;25977;45.462;9.210;2023-05-10T03:58:27;4.50;;;4.10;;
40256;SDS011;25977;45.462;9.210;2023-05-10T04:00:53;4.93;;;3.67;;
40256;SDS011;25977;45.462;9.210;2023-05-10T04:03:19;4.68;;;3.97;;
40256;SDS011;25977;45.462;9.210;2023-05-10T04:05:45;7.57;;;4.53;;
40256;SDS011;25977;45.462;9.210;2023-05-10T04:08:11;4.93;;;4.20;;
40256;SDS011;25977;45.462;9.210;2023-05-10T04:10:36;3.78;;;3.47;;
40256;SDS011;25977;45.462;9.210;2023-05-10T04:13:02;6.80;;;3.85;;
40256;SDS011;25977;45.462;9.210;2023-05-10T04:15:28;4.60;;;3.53;;
40256;SDS011;25977;45.462;9.210;2023-05-10T04:17:53;4.30;;;3.47;;
40256;SDS011;25977;45.462;9.210;2023-05-10T04:20:19;4.65;;;3.75;;
40256;SDS011;25977;45.462;9.210;2023-05-10T04:22:45;3.15;;;2.95;;
40256;SDS011;25977;45.462;9.210;2023-05-10T04:25:10;3.85;;;3.38;;
40256;SDS011;25977;45.462;9.210;2023-05-10T04:27:36;4.32;;;4.00;;
40256;SDS011;25977;45.462;9.210;2023-05-10T04:30:02;4.63;;;4.03;;
40256;SDS011;25977;45.462;9.210;2023-05-10T04:32:28;4.95;;;3.53;;
40256;SDS011;25977;45.462;9.210;2023-05-10T04:34:54;3.10;;;2.90;;
40256;SDS011;25977;45.462;9.210;2023-05-10T04:37:19;6.95;;;4.07;;
40256;SDS011;25977;45.462;9.210;2023-05-10T04:39:46;3.53;;;3.33;;
40256;SDS011;25977;45.462;9.210;2023-05-10T04:42:12;3.67;;;3.30;;
40256;SDS011;25977;45.462;9.210;2023-05-10T04:44:39;4.38;;;3.97;;
40256;SDS011;25977;45.462;9.210;2023-05-10T04:47:05;5.28;;;3.70;;
40256;SDS011;25977;45.462;9.210;2023-05-10T04:49:31;4.15;;;3.75;;
40256;SDS011;25977;45.462;9.210;2023-05-10T04:51:57;3.13;;;2.85;;
40256;SDS011;25977;45.462;9.210;2023-05-10T04:54:23;3.97;;;3.60;;
40256;SDS011;25977;45.462;9.210;2023-05-10T04:56:48;5.70;;;2.95;;
40256;SDS011;25977;45.462;9.210;2023-05-10T04:59:14;3.30;;;2.83;;
40256;SDS011;25977;45.462;9.210;2023-05-10T05:01:40;3.28;;;3.08;;
40256;SDS011;25977;45.462;9.210;2023-05-10T05:04:05;3.60;;;3.30;;
40256;SDS011;25977;45.462;9.210;2023-05-10T05:06:31;3.50;;;3.20;;
40256;SDS011;25977;45.462;9.210;2023-05-10T05:08:57;7.55;;;3.55;;
40256;SDS011;25977;45.462;9.210;2023-05-10T05:11:23;4.03;;;3.58;;
40256;SDS011;25977;45.462;9.210;2023-05-10T05:13:49;3.33;;;3.03;;
40256;SDS011;25977;45.462;9.210;2023-05-10T05:16:14;3.65;;;3.35;;
40256;SDS011;25977;45.462;9.210;2023-05-10T05:18:41;3.53;;;3.33;;
40256;SDS011;25977;45.462;9.210;2023-05-10T05:21:13;3.17;;;2.97;;
40256;SDS011;25977;45.462;9.210;2023-05-10T05:23:43;3.67;;;3.38;;
40256;SDS011;25977;45.462;9.210;2023-05-10T05:26:09;4.53;;;3.92;;
40256;SDS011;25977;45.462;9.210;2023-05-10T05:28:35;3.65;;;3.33;;
40256;SDS011;25977;45.462;9.210;2023-05-10T05:31:04;4.28;;;3.85;;
40256;SDS011;25977;45.462;9.210;2023-05-10T05:33:30;6.30;;;3.95;;
40256;SDS011;25977;45.462;9.210;2023-05-10T05:35:56;4.15;;;3.85;;
40256;SDS011;25977;45.462;9.210;2023-05-10T05:38:22;4.45;;;3.65;;
40256;SDS011;25977;45.462;9.210;2023-05-10T05:40:48;3.97;;;3.65;;
40256;SDS011;25977;45.462;9.210;2023-05-10T05:43:14;4.07;;;3.50;;
40256;SDS011;25977;45.462;9.210;2023-05-10T05:45:40;4.35;;;3.75;;
40256;SDS011;25977;45.462;9.210;2023-05-10T05:48:05;5.20;;;3.95;;
40256;SDS011;25977;45.462;9.210;2023-05-10T05:50:31;6.32;;;4.50;;
40256;SDS011;25977;45.462;9.210;2023-05-10T05:52:57;4.18;;;3.78;;
40256;SDS011;25977;45.462;9.210;2023-05-10T05:55:22;4.00;;;3.70;;
40256;SDS011;25977;45.462;9.210;2023-05-10T05:57:49;4.05;;;3.75;;
40256;SDS011;25977;45.462;9.210;2023-05-10T06:00:15;3.42;;;3.22;;
40256;SDS011;25977;45.462;9.210;2023-05-10T06:02:41;3.22;;;2.92;;
40256;SDS011;25977;45.462;9.210;2023-05-10T06:05:06;3.90;;;3.60;;
40256;SDS011;25977;45.462;9.210;2023-05-10T06:07:32;4.97;;;3.63;;
40256;SDS011;25977;45.462;9.210;2023-05-10T06:09:58;3.85;;;3.55;;
40256;SDS011;25977;45.462;9.210;2023-05-10T06:12:24;4.75;;;3.63;;
40256;SDS011;25977;45.462;9.210;2023-05-10T06:14:49;3.22;;;2.88;;
40256;SDS011;25977;45.462;9.210;2023-05-10T06:17:15;4.00;;;3.15;;
40256;SDS011;25977;45.462;9.210;2023-05-10T06:19:41;4.32;;;4.03;;
40256;SDS011;25977;45.462;9.210;2023-05-10T06:22:06;4.47;;;4.07;;
40256;SDS011;25977;45.462;9.210;2023-05-10T06:24:32;5.38;;;3.72;;
40256;SDS011;25977;45.462;9.210;2023-05-10T06:26:57;4.47;;;4.07;;
40256;SDS011;25977;45.462;9.210;2023-05-10T06:29:25;3.53;;;3.22;;
40256;SDS011;25977;45.462;9.210;2023-05-10T06:31:51;4.13;;;3.83;;
40256;SDS011;25977;45.462;9.210;2023-05-10T06:34:16;4.15;;;3.83;;
40256;SDS011;25977;45.462;9.210;2023-05-10T06:36:42;4.25;;;3.25;;
40256;SDS011;25977;45.462;9.210;2023-05-10T06:39:08;4.07;;;3.78;;
40256;SDS011;25977;45.462;9.210;2023-05-10T06:41:33;5.05;;;4.47;;
40256;SDS011;25977;45.462;9.210;2023-05-10T06:43:59;4.85;;;4.25;;
40256;SDS011;25977;45.462;9.210;2023-05-10T06:46:25;3.83;;;3.53;;
40256;SDS011;25977;45.462;9.210;2023-05-10T06:48:50;4.05;;;3.70;;
40256;SDS011;25977;45.462;9.210;2023-05-10T06:51:16;3.15;;;2.88;;
40256;SDS011;25977;45.462;9.210;2023-05-10T06:53:42;4.45;;;4.10;;
40256;SDS011;25977;45.462;9.210;2023-05-10T06:56:08;3.80;;;3.50;;
40256;SDS011;25977;45.462;9.210;2023-05-10T06:58:33;3.78;;;3.47;;
40256;SDS011;25977;45.462;9.210;2023-05-10T07:01:03;4.85;;;3.80;;
40256;SDS011;25977;45.462;9.210;2023-05-10T07:03:30;3.90;;;3.20;;
40256;SDS011;25977;45.462;9.210;2023-05-10T07:06:02;3.53;;;2.95;;
40256;SDS011;25977;45.462;9.210;2023-05-10T07:10:59;3.08;;;2.72;;
40256;SDS011;25977;45.462;9.210;2023-05-10T07:13:29;3.53;;;3.22;;
40256;SDS011;25977;45.462;9.210;2023-05-10T07:15:58;4.50;;;3.10;;
40256;SDS011;25977;45.462;9.210;2023-05-10T07:18:25;3.53;;;2.60;;
40256;SDS011;25977;45.462;9.210;2023-05-10T07:20:51;3.13;;;2.92;;
40256;SDS011;25977;45.462;9.210;2023-05-10T07:23:17;3.03;;;2.80;;
40256;SDS011;25977;45.462;9.210;2023-05-10T07:25:47;2.00;;;1.90;;
40256;SDS011;25977;45.462;9.210;2023-05-10T07:28:14;3.95;;;2.35;;
40256;SDS011;25977;45.462;9.210;2023-05-10T07:30:40;2.50;;;2.30;;
40256;SDS011;25977;45.462;9.210;2023-05-10T07:33:06;3.65;;;2.00;;
40256;SDS011;25977;45.462;9.210;2023-05-10T07:35:34;2.60;;;2.50;;
40256;SDS011;25977;45.462;9.210;2023-05-10T07:38:00;2.35;;;2.15;;
40256;SDS011;25977;45.462;9.210;2023-05-10T07:40:26;3.03;;;2.78;;
40256;SDS011;25977;45.462;9.210;2023-05-10T07:42:51;2.63;;;2.42;;
40256;SDS011;25977;45.462;9.210;2023-05-10T07:45:17;7.43;;;2.55;;
40256;SDS011;25977;45.462;9.210;2023-05-10T07:47:43;2.83;;;2.63;;
40256;SDS011;25977;45.462;9.210;2023-05-10T07:50:09;2.85;;;2.33;;
40256;SDS011;25977;45.462;9.210;2023-05-10T07:52:35;2.83;;;2.63;;
40256;SDS011;25977;45.462;9.210;2023-05-10T07:55:00;3.88;;;2.38;;
40256;SDS011;25977;45.462;9.210;2023-05-10T07:57:26;2.13;;;1.90;;
40256;SDS011;25977;45.462;9.210;2023-05-10T07:59:52;2.55;;;2.17;;
40256;SDS011;25977;45.462;9.210;2023-05-10T08:02:17;1.83;;;1.70;;
40256;SDS011;25977;45.462;9.210;2023-05-10T08:04:43;2.47;;;2.30;;
40256;SDS011;25977;45.462;9.210;2023-05-10T08:07:08;2.83;;;2.40;;
40256;SDS011;25977;45.462;9.210;2023-05-10T08:09:35;2.10;;;2.00;;
40256;SDS011;25977;45.462;9.210;2023-05-10T08:12:02;3.67;;;2.60;;
40256;SDS011;25977;45.462;9.210;2023-05-10T08:14:31;2.67;;;2.05;;
40256;SDS011;25977;45.462;9.210;2023-05-10T08:16:56;2.80;;;2.60;;
40256;SDS011;25977;45.462;9.210;2023-05-10T08:19:22;4.43;;;2.50;;
40256;SDS011;25977;45.462;9.210;2023-05-10T08:21:48;2.85;;;2.45;;
40256;SDS011;25977;45.462;9.210;2023-05-10T08:24:14;3.63;;;2.22;;
40256;SDS011;25977;45.462;9.210;2023-05-10T08:26:40;2.22;;;2.13;;
40256;SDS011;25977;45.462;9.210;2023-05-10T08:29:06;1.98;;;1.77;;
40256;SDS011;25977;45.462;9.210;2023-05-10T08:31:31;2.35;;;2.15;;
40256;SDS011;25977;45.462;9.210;2023-05-10T08:33:57;2.17;;;1.95;;
40256;SDS011;25977;45.462;9.210;2023-05-10T08:36:23;2.42;;;2.08;;
40256;SDS011;25977;45.462;9.210;2023-05-10T08:38:52;2.05;;;1.95;;
40256;SDS011;25977;45.462;9.210;2023-05-10T08:41:22;4.30;;;2.17;;
40256;SDS011;25977;45.462;9.210;2023-05-10T08:43:51;2.28;;;2.08;;
40256;SDS011;25977;45.462;9.210;2023-05-10T08:46:18;2.55;;;2.35;;
40256;SDS011;25977;45.462;9.210;2023-05-10T08:48:45;1.67;;;1.58;;
40256;SDS011;25977;45.462;9.210;2023-05-10T08:51:18;3.25;;;2.42;;
40256;SDS011;25977;45.462;9.210;2023-05-10T08:53:47;8.80;;;2.03;;
40256;SDS011;25977;45.462;9.210;2023-05-10T08:56:13;1.75;;;1.65;;
40256;SDS011;25977;45.462;9.210;2023-05-10T08:58:40;2.10;;;2.00;;
40256;SDS011;25977;45.462;9.210;2023-05-10T09:01:06;2.08;;;1.98;;
40256;SDS011;25977;45.462;9.210;2023-05-10T09:03:33;4.15;;;1.80;;
40256;SDS011;25977;45.462;9.210;2023-05-10T09:06:00;2.40;;;2.20;;
40256;SDS011;25977;45.462;9.210;2023-05-10T09:08:26;2.03;;;1.92;;
40256;SDS011;25977;45.462;9.210;2023-05-10T09:10:52;1.70;;;1.48;;
40256;SDS011;25977;45.462;9.210;2023-05-10T09:13:19;3.15;;;2.22;;
40256;SDS011;25977;45.462;9.210;2023-05-10T09:15:46;2.58;;;2.10;;
40256;SDS011;25977;45.462;9.210;2023-05-10T09:18:13;5.15;;;2.30;;
40256;SDS011;25977;45.462;9.210;2023-05-10T09:20:39;2.88;;;2.13;;
40256;SDS011;25977;45.462;9.210;2023-05-10T09:23:05;4.53;;;2.50;;
40256;SDS011;25977;45.462;9.210;2023-05-10T09:25:31;2.25;;;2.13;;
40256;SDS011;25977;45.462;9.210;2023-05-10T09:27:58;4.35;;;1.83;;
40256;SDS011;25977;45.462;9.210;2023-05-10T09:30:25;2.35;;;2.13;;
40256;SDS011;25977;45.462;9.210;2023-05-10T09:32:53;1.85;;;1.75;;
40256;SDS011;25977;45.462;9.210;2023-05-10T09:35:20;3.28;;;2.03;;
40256;SDS011;25977;45.462;9.210;2023-05-10T09:37:51;2.03;;;1.92;;
40256;SDS011;25977;45.462;9.210;2023-05-10T09:40:22;2.20;;;2.10;;
40256;SDS011;25977;45.462;9.210;2023-05-10T09:42:54;3.22;;;2.47;;
40256;SDS011;25977;45.462;9.210;2023-05-10T09:45:32;1.88;;;1.48;;
40256;SDS011;25977;45.462;9.210;2023-05-10T09:47:59;7.90;;;2.03;;
40256;SDS011;25977;45.462;9.210;2023-05-10T09:50:27;9.40;;;2.13;;
40256;SDS011;25977;45.462;9.210;2023-05-10T09:52:57;2.00;;;1.90;;
40256;SDS011;25977;45.462;9.210;2023-05-10T09:55:25;3.40;;;2.95;;
40256;SDS011;25977;45.462;9.210;2023-05-10T09:58:02;2.13;;;2.03;;
40256;SDS011;25977;45.462;9.210;2023-05-10T10:00:33;2.38;;;1.55;;
40256;SDS011;25977;45.462;9.210;2023-05-10T10:03:00;2.40;;;2.30;;
40256;SDS011;25977;45.462;9.210;2023-05-10T10:05:30;2.42;;;2.15;;
40256;SDS011;25977;45.462;9.210;2023-05-10T10:07:57;2.30;;;2.10;;
40256;SDS011;25977;45.462;9.210;2023-05-10T10:10:24;2.47;;;2.30;;
40256;SDS011;25977;45.462;9.210;2023-05-10T10:12:53;1.98;;;1.88;;
40256;SDS011;25977;45.462;9.210;2023-05-10T10:15:20;1.63;;;1.52;;
40256;SDS011;25977;45.462;9.210;2023-05-10T10:17:46;2.90;;;1.67;;
40256;SDS011;25977;45.462;9.210;2023-05-10T10:20:14;2.10;;;2.00;;
40256;SDS011;25977;45.462;9.210;2023-05-10T10:22:40;2.22;;;2.03;;
40256;SDS011;25977;45.462;9.210;2023-05-10T10:25:07;2.55;;;2.15;;
40256;SDS011;25977;45.462;9.210;2023-05-10T10:27:36;2.50;;;2.35;;
40256;SDS011;25977;45.462;9.210;2023-05-10T10:30:29;2.28;;;2.05;;
40256;SDS011;25977;45.462;9.210;2023-05-10T10:36:11;3.58;;;3.25;;
40256;SDS011;25977;45.462;9.210;2023-05-10T10:41:31;3.83;;;2.35;;
40256;SDS011;25977;45.462;9.210;2023-05-10T10:47:02;1.50;;;1.40;;
40256;SDS011;25977;45.462;9.210;2023-05-10T10:49:31;1.60;;;1.50;;
40256;SDS011;25977;45.462;9.210;2023-05-10T10:54:40;2.33;;;2.08;;
40256;SDS011;25977;45.462;9.210;2023-05-10T10:57:13;1.90;;;1.80;;
40256;SDS011;25977;45.462;9.210;2023-05-10T10:59:43;2.20;;;2.10;;
40256;SDS011;25977;45.462;9.210;2023-05-10T11:04:58;1.65;;;1.55;;
40256;SDS011;25977;45.462;9.210;2023-05-10T11:07:24;2.63;;;1.77;;
40256;SDS011;25977;45.462;9.210;2023-05-10T11:09:49;1.90;;;1.70;;
40256;SDS011;25977;45.462;9.210;2023-05-10T11:12:15;1.60;;;1.50;;
40256;SDS011;25977;45.462;9.210;2023-05-10T11:14:41;3.78;;;1.98;;
40256;SDS011;25977;45.462;9.210;2023-05-10T11:17:22;7.38;;;2.10;;
40256;SDS011;25977;45.462;9.210;2023-05-10T11:20:09;2.00;;;1.80;;
40256;SDS011;25977;45.462;9.210;2023-05-10T11:22:51;2.78;;;2.58;;
40256;SDS011;25977;45.462;9.210;2023-05-10T11:25:17;2.00;;;1.80;;
40256;SDS011;25977;45.462;9.210;2023-05-10T11:27:43;2.47;;;2.08;;
40256;SDS011;25977;45.462;9.210;2023-05-10T11:30:10;3.28;;;2.42;;
40256;SDS011;25977;45.462;9.210;2023-05-10T11:32:39;2.90;;;2.08;;
40256;SDS011;25977;45.462;9.210;2023-05-10T11:35:08;2.25;;;2.05;;
40256;SDS011;25977;45.462;9.210;2023-05-10T11:37:35;2.33;;;2.13;;
40256;SDS011;25977;45.462;9.210;2023-05-10T11:40:01;2.65;;;2.17;;
40256;SDS011;25977;45.462;9.210;2023-05-10T11:42:27;1.95;;;1.77;;
40256;SDS011;25977;45.462;9.210;2023-05-10T11:44:53;2.75;;;2.55;;
40256;SDS011;25977;45.462;9.210;2023-05-10T11:47:19;2.70;;;2.47;;
40256;SDS011;25977;45.462;9.210;2023-05-10T11:49:45;4.65;;;2.38;;
40256;SDS011;25977;45.462;9.210;2023-05-10T11:52:11;3.10;;;2.90;;
40256;SDS011;25977;45.462;9.210;2023-05-10T11:54:37;3.13;;;2.83;;
40256;SDS011;25977;45.462;9.210;2023-05-10T11:57:03;3.30;;;3.08;;
40256;SDS011;25977;45.462;9.210;2023-05-10T11:59:29;3.13;;;2.92;;
40256;SDS011;25977;45.462;9.210;2023-05-10T12:01:54;3.42;;;2.85;;
40256;SDS011;25977;45.462;9.210;2023-05-10T12:04:20;2.67;;;2.47;;
40256;SDS011;25977;45.462;9.210;2023-05-10T12:06:46;2.33;;;2.22;;
40256;SDS011;25977;45.462;9.210;2023-05-10T12:09:12;2.47;;;2.35;;
40256;SDS011;25977;45.462;9.210;2023-05-10T12:11:38;6.45;;;2.72;;
40256;SDS011;25977;45.462;9.210;2023-05-10T12:14:05;4.88;;;2.20;;
40256;SDS011;25977;45.462;9.210;2023-05-10T12:16:31;5.50;;;2.20;;
40256;SDS011;25977;45.462;9.210;2023-05-10T12:18:57;2.85;;;2.10;;
40256;SDS011;25977;45.462;9.210;2023-05-10T12:21:25;2.10;;;2.00;;
40256;SDS011;25977;45.462;9.210;2023-05-10T12:23:52;1.75;;;1.52;;
40256;SDS011;25977;45.462;9.210;2023-05-10T12:26:22;4.57;;;2.35;;
40256;SDS011;25977;45.462;9.210;2023-05-10T12:28:49;2.25;;;2.08;;
40256;SDS011;25977;45.462;9.210;2023-05-10T12:31:15;2.00;;;1.90;;
40256;SDS011;25977;45.462;9.210;2023-05-10T12:33:42;2.38;;;2.17;;
40256;SDS011;25977;45.462;9.210;2023-05-10T12:36:09;3.38;;;1.85;;
40256;SDS011;25977;45.462;9.210;2023-05-10T12:38:36;2.83;;;1.90;;
40256;SDS011;25977;45.462;9.210;2023-05-10T12:41:07;2.25;;;2.15;;
40256;SDS011;25977;45.462;9.210;2023-05-10T12:43:37;2.13;;;1.85;;
40256;SDS011;25977;45.462;9.210;2023-05-10T12:46:04;1.88;;;1.77;;
40256;SDS011;25977;45.462;9.210;2023-05-10T12:48:34;1.90;;;1.80;;
40256;SDS011;25977;45.462;9.210;2023-05-10T12:51:01;2.20;;;2.10;;
40256;SDS011;25977;45.462;9.210;2023-05-10T12:53:27;2.15;;;1.95;;
40256;SDS011;25977;45.462;9.210;2023-05-10T12:55:53;3.00;;;1.63;;
40256;SDS011;25977;45.462;9.210;2023-05-10T12:58:19;2.17;;;2.08;;
40256;SDS011;25977;45.462;9.210;2023-05-10T13:00:45;1.90;;;1.48;;
40256;SDS011;25977;45.462;9.210;2023-05-10T13:03:11;1.83;;;1.73;;
40256;SDS011;25977;45.462;9.210;2023-05-10T13:05:36;2.65;;;1.80;;
40256;SDS011;25977;45.462;9.210;2023-05-10T13:08:02;1.75;;;1.65;;
40256;SDS011;25977;45.462;9.210;2023-05-10T13:10:31;2.00;;;1.90;;
40256;SDS011;25977;45.462;9.210;2023-05-10T13:12:57;4.30;;;2.13;;
40256;SDS011;25977;45.462;9.210;2023-05-10T13:15:23;2.28;;;2.17;;
40256;SDS011;25977;45.462;9.210;2023-05-10T13:17:49;2.20;;;2.00;;
40256;SDS011;25977;45.462;9.210;2023-05-10T13:20:15;2.42;;;2.22;;
40256;SDS011;25977;45.462;9.210;2023-05-10T13:22:41;2.50;;;1.77;;
40256;SDS011;25977;45.462;9.210;2023-05-10T13:25:07;1.90;;;1.80;;
40256;SDS011;25977;45.462;9.210;2023-05-10T13:27:33;2.13;;;2.00;;
40256;SDS011;25977;45.462;9.210;2023-05-10T13:29:59;2.92;;;2.30;;
40256;SDS011;25977;45.462;9.210;2023-05-10T13:32:26;2.60;;;1.63;;
40256;SDS011;25977;45.462;9.210;2023-05-10T13:34:52;2.00;;;1.90;;
40256;SDS011;25977;45.462;9.210;2023-05-10T13:37:17;2.70;;;2.50;;
40256;SDS011;25977;45.462;9.210;2023-05-10T13:39:43;2.33;;;1.98;;
40256;SDS011;25977;45.462;9.210;2023-05-10T13:42:09;2.22;;;2.13;;
40256;SDS011;25977;45.462;9.210;2023-05-10T13:44:34;2.20;;;2.10;;
40256;SDS011;25977;45.462;9.210;2023-05-10T13:47:01;2.95;;;2.40;;
40256;SDS011;25977;45.462;9.210;2023-05-10T13:49:26;2.15;;;2.05;;
40256;SDS011;25977;45.462;9.210;2023-05-10T13:51:52;2.45;;;2.25;;
40256;SDS011;25977;45.462;9.210;2023-05-10T13:54:18;2.55;;;2.45;;
40256;SDS011;25977;45.462;9.210;2023-05-10T13:56:45;3.97;;;2.47;;
40256;SDS011;25977;45.462;9.210;2023-05-10T13:59:12;2.13;;;2.03;;
40256;SDS011;25977;45.462;9.210;2023-05-10T14:01:39;2.65;;;2.45;;
40256;SDS011;25977;45.462;9.210;2023-05-10T14:04:08;1.90;;;1.80;;
40256;SDS011;25977;45.462;9.210;2023-05-10T14:06:38;2.28;;;2.05;;
40256;SDS011;25977;45.462;9.210;2023-05-10T14:09:04;2.30;;;2.10;;
40256;SDS011;25977;45.462;9.210;2023-05-10T14:11:29;2.40;;;2.20;;
40256;SDS011;25977;45.462;9.210;2023-05-10T14:13:55;4.40;;;2.22;;
40256;SDS011;25977;45.462;9.210;2023-05-10T14:16:20;2.88;;;2.47;;
40256;SDS011;25977;45.462;9.210;2023-05-10T14:18:46;3.30;;;3.08;;
40256;SDS011;25977;45.462;9.210;2023-05-10T14:21:12;3.85;;;2.78;;
40256;SDS011;25977;45.462;9.210;2023-05-10T14:23:38;5.72;;;2.53;;
40256;SDS011;25977;45.462;9.210;2023-05-10T14:26:04;2.50;;;2.40;;
40256;SDS011;25977;45.462;9.210;2023-05-10T14:28:31;2.72;;;2.53;;
40256;SDS011;25977;45.462;9.210;2023-05-10T14:30:56;4.05;;;2.22;;
40256;SDS011;25977;45.462;9.210;2023-05-10T14:33:22;5.65;;;2.97;;
40256;SDS011;25977;45.462;9.210;2023-05-10T14:35:48;2.90;;;2.70;;
40256;SDS011;25977;45.462;9.210;2023-05-10T14:38:14;2.53;;;2.33;;
40256;SDS011;25977;45.462;9.210;2023-05-10T14:40:40;3.08;;;2.88;;
40256;SDS011;25977;45.462;9.210;2023-05-10T14:43:06;2.53;;;2.40;;
40256;SDS011;25977;45.462;9.210;2023-05-10T14:45:32;2.88;;;2.63;;
40256;SDS011;25977;45.462;9.210;2023-05-10T14:47:58;2.70;;;2.50;;
40256;SDS011;25977;45.462;9.210;2023-05-10T14:50:24;2.85;;;2.67;;
40256;SDS011;25977;45.462;9.210;2023-05-10T14:52:49;3.03;;;2.80;;
40256;SDS011;25977;45.462;9.210;2023-05-10T14:55:15;2.10;;;2.00;;
40256;SDS011;25977;45.462;9.210;2023-05-10T14:57:41;3.95;;;2.17;;
40256;SDS011;25977;45.462;9.210;2023-05-10T15:00:07;3.83;;;2.67;;
40256;SDS011;25977;45.462;9.210;2023-05-10T15:02:33;4.22;;;2.47;;
40256;SDS011;25977;45.462;9.210;2023-05-10T15:04:59;2.83;;;2.63;;
40256;SDS011;25977;45.462;9.210;2023-05-10T15:07:24;2.70;;;2.50;;
40256;SDS011;25977;45.462;9.210;2023-05-10T15:09:50;2.17;;;2.08;;
40256;SDS011;25977;45.462;9.210;2023-05-10T15:12:19;1.70;;;1.60;;
40256;SDS011;25977;45.462;9.210;2023-05-10T15:14:45;2.33;;;2.22;;
40256;SDS011;25977;45.462;9.210;2023-05-10T15:17:11;3.17;;;2.30;;
40256;SDS011;25977;45.462;9.210;2023-05-10T15:19:36;2.00;;;1.90;;
40256;SDS011;25977;45.462;9.210;2023-05-10T15:22:03;2.35;;;2.25;;